Conway, Missouri
Current Conditions -  °F | °C
As of 8:15 AM on Friday 19 Dec 2014 (Local Time) from KH21 Reporting Station
Overcast Overcast  
Wind Chill: -2°   Ceiling: 400
Heat Index:   Visibility: 10mi
Dew Point:   Wind: 7mph
Humidity: 93%   Direction: 100°E
Pressure: 30.27"   Gusts: NA
Location:  37.5°N, 92.82°W
Report Text: KH21 191415Z AUTO 10006KT 10SM OVC004 01/00 A3027 RMK AO2
Loading
Personal Weather Stations






























Interactive Weather Map New forecast layout! Learn more

10-Day Weather Forecast

Advertisements
Track Severe Weather on mobile